Time;durP1;ratioP1;P1;durP2;ratioP2;P2;SDS_P1;SDS_P2;PMS_P1;PMS_P2;Temp;Humidity;BMP_temperature;BMP_pressure;BME280_temperature;BME280_humidity;BME280_pressure;Samples;Min_cycle;Max_cycle;Signal;HPM_P1;HPM_P2
2022/01/28 00:04:51;;;;;;;3.50;2.00;;;;;;;-2.41;100.00;102728.75;5037432;28;20030;-50
2022/01/28 00:07:17;;;;;;;4.27;1.83;;;;;;;-2.39;100.00;102735.69;5046560;28;20075;-53
2022/01/28 00:09:42;;;;;;;5.40;1.67;;;;;;;-2.41;100.00;102739.16;5042952;28;20313;-50
2022/01/28 00:12:09;;;;;;;7.22;2.50;;;;;;;-2.44;100.00;102728.88;5038532;28;20044;-51
2022/01/28 00:39:02;;;;;;;2.45;1.60;;;;;;;-2.76;100.00;102761.13;5051999;28;20555;-51
2022/01/28 00:41:27;;;;;;;3.47;0.88;;;;;;;-2.77;100.00;102758.56;5040576;28;20071;-50
2022/01/28 00:43:52;;;;;;;2.35;2.08;;;;;;;-2.78;100.00;102762.06;5052672;28;20075;-51
2022/01/28 00:46:18;;;;;;;5.75;0.70;;;;;;;-2.80;100.00;102767.28;5042007;28;20494;-53
2022/01/28 00:48:43;;;;;;;2.00;0.93;;;;;;;-2.83;100.00;102753.56;5043837;28;20033;-50
2022/01/28 00:51:08;;;;;;;2.13;0.70;;;;;;;-2.84;100.00;102757.88;5040051;28;20085;-51
2022/01/28 00:53:34;;;;;;;1.15;0.75;;;;;;;-2.87;100.00;102764.03;5055394;28;20032;-54
2022/01/28 00:55:59;;;;;;;2.67;1.00;;;;;;;-2.88;100.00;102757.16;5050722;28;20479;-52
2022/01/28 00:58:25;;;;;;;1.60;0.80;;;;;;;-2.90;100.00;102761.53;5050827;28;20037;-49
2022/01/28 01:00:51;;;;;;;2.55;1.08;;;;;;;-2.91;100.00;102757.25;5043273;28;20029;-48
2022/01/28 01:03:16;;;;;;;4.15;1.52;;;;;;;-2.88;100.00;102759.75;5051528;28;20048;-51
2022/01/28 01:05:42;;;;;;;1.52;0.68;;;;;;;-2.90;100.00;102761.53;5047707;28;20029;-53
2022/01/28 01:08:08;;;;;;;2.28;0.45;;;;;;;-2.95;100.00;102763.41;5048793;28;20417;-49
2022/01/28 01:10:34;;;;;;;2.92;0.88;;;;;;;-2.99;100.00;102759.25;5044512;28;20036;-51
2022/01/28 01:13:00;;;;;;;2.08;1.52;;;;;;;-3.02;100.00;102764.53;5054783;28;20040;-49
2022/01/28 01:15:31;;;;;;;2.45;1.23;;;;;;;-3.00;100.00;102767.91;5053520;28;20041;-51
2022/01/28 01:18:07;;;;;;;;;;;;;;;-2.87;100.00;102763.19;5045446;28;20056;-49
2022/01/28 01:23:10;;;;;;;4.05;0.65;;;;;;;-2.90;100.00;102763.28;5053816;28;20240;-48
2022/01/28 01:25:51;;;;;;;3.60;1.35;;;;;;;-2.97;100.00;102762.66;5040505;28;20025;-49
2022/01/28 01:28:20;;;;;;;0.75;0.52;;;;;;;-3.01;100.00;102755.84;5044697;28;20039;-52
2022/01/28 01:30:46;;;;;;;3.70;0.70;;;;;;;-3.05;100.00;102749.03;5046964;28;20088;-54
2022/01/28 01:33:12;;;;;;;2.75;0.50;;;;;;;-3.07;100.00;102756.03;5053805;28;20029;-50
2022/01/28 01:35:39;;;;;;;1.20;0.45;;;;;;;-3.08;100.00;102755.16;5043502;28;20051;-49
2022/01/28 01:38:06;;;;;;;2.10;0.85;;;;;;;-3.04;100.00;102757.69;5043392;28;20156;-50
2022/01/28 01:40:38;;;;;;;1.38;0.52;;;;;;;-3.03;100.00;102762.81;5053011;28;20107;-49
2022/01/28 01:43:20;;;;;;;6.28;0.63;;;;;;;-3.08;100.00;102769.88;5042779;28;20040;-50
2022/01/28 01:45:58;;;;;;;5.57;0.68;;;;;;;-3.13;100.00;102764.00;5045537;28;20605;-51
2022/01/28 01:53:53;;;;;;;2.30;0.88;;;;;;;-3.11;100.00;102780.38;5050438;28;20043;-51
2022/01/28 01:56:19;;;;;;;1.20;0.88;;;;;;;-3.13;100.00;102782.16;5037706;28;20037;-52
2022/01/28 01:58:45;;;;;;;4.57;0.57;;;;;;;-3.16;100.00;102766.69;5048774;28;20071;-48
2022/01/28 02:01:11;;;;;;;2.05;0.60;;;;;;;-3.20;100.00;102773.72;5044730;28;20116;-52
2022/01/28 02:03:37;;;;;;;1.67;0.50;;;;;;;-3.25;100.00;102780.78;5053005;28;20119;-54
2022/01/28 02:06:02;;;;;;;4.20;0.68;;;;;;;-3.28;100.00;102770.47;5038420;28;20044;-50
2022/01/28 02:08:31;;;;;;;2.80;0.57;;;;;;;-3.25;100.00;102769.53;5050180;28;20032;-52
2022/01/28 02:10:58;;;;;;;3.28;0.63;;;;;;;-3.32;100.00;102769.72;5050247;28;20039;-52
2022/01/28 02:13:28;;;;;;;1.35;0.32;;;;;;;-3.33;100.00;102768.03;5049630;28;20071;-48
2022/01/28 02:15:57;;;;;;;0.60;0.13;;;;;;;-3.32;100.00;102772.31;5046611;28;20033;-54
2022/01/28 02:18:24;;;;;;;0.93;0.30;;;;;;;-3.31;100.00;102771.41;5048160;28;20300;-50
2022/01/28 02:20:52;;;;;;;1.45;0.43;;;;;;;-3.34;100.00;102773.25;5053765;28;20127;-50
2022/01/28 02:23:20;;;;;;;1.40;0.75;;;;;;;-3.36;100.00;102768.09;5048292;28;20033;-51
2022/01/28 02:25:45;;;;;;;0.75;0.55;;;;;;;-3.31;100.00;102770.56;5039529;28;20055;-54
2022/01/28 02:28:13;;;;;;;5.35;0.57;;;;;;;-3.26;100.00;102775.63;5048075;28;20508;-54
2022/01/28 02:30:39;;;;;;;4.45;1.15;;;;;;;-3.34;100.00;102781.06;5046097;28;20033;-50
2022/01/28 02:33:17;;;;;;;3.72;0.63;;;;;;;-3.35;100.00;102779.38;5049988;28;20044;-50
2022/01/28 02:35:43;;;;;;;1.25;0.50;;;;;;;-3.39;100.00;102770.81;5034082;28;20494;-48
2022/01/28 02:38:11;;;;;;;3.83;0.30;;;;;;;-3.37;100.00;102779.41;5047446;28;20026;-48
2022/01/28 02:40:37;;;;;;;2.72;0.65;;;;;;;-3.33;100.00;102780.16;5043098;28;20037;-51
2022/01/28 02:43:18;;;;;;;0.65;0.40;;;;;;;-3.35;100.00;102790.59;5045389;28;20033;-48
2022/01/28 02:45:44;;;;;;;1.50;1.23;;;;;;;-3.39;100.00;102790.72;5039582;28;20462;-50
2022/01/28 02:48:17;;;;;;;1.05;0.85;;;;;;;-3.42;100.00;102780.44;5046162;28;20090;-48
2022/01/28 02:53:26;;;;;;;3.40;1.85;;;;;;;-3.43;100.00;102807.25;5048521;28;20032;-48
2022/01/28 02:56:01;;;;;;;2.92;0.20;;;;;;;-3.42;100.00;102804.63;5047550;28;20429;-49
2022/01/28 02:58:27;;;;;;;0.82;0.45;;;;;;;-3.46;100.00;102815.97;5050499;28;21505;-47
2022/01/28 03:00:55;;;;;;;4.25;0.20;;;;;;;-3.45;100.00;102817.69;5050385;28;20048;-54
2022/01/28 03:03:24;;;;;;;1.15;0.60;;;;;;;-3.45;100.00;102807.31;5050170;28;20029;-53
2022/01/28 03:05:50;;;;;;;1.90;0.43;;;;;;;-3.45;100.00;102811.66;5055865;28;20040;-51
2022/01/28 03:08:17;;;;;;;3.60;0.70;;;;;;;-3.43;100.00;102810.72;5026935;28;20436;-52
2022/01/28 03:10:52;;;;;;;0.77;0.10;;;;;;;-3.45;100.00;102806.47;5047825;28;20066;-51
2022/01/28 03:13:31;;;;;;;0.57;0.40;;;;;;;-3.49;100.00;102807.44;5043122;28;20090;-55
2022/01/28 03:16:08;;;;;;;4.35;0.65;;;;;;;-3.54;100.00;102802.38;5056630;28;20492;-50
2022/01/28 03:18:44;;;;;;;2.25;0.80;;;;;;;-3.53;100.00;102804.94;5045908;28;20482;-52
2022/01/28 03:21:27;;;;;;;1.55;0.55;;;;;;;-3.45;100.00;102816.84;5039162;28;20414;-52
2022/01/28 03:23:53;;;;;;;2.97;0.35;;;;;;;-3.39;100.00;102807.13;5046732;28;20118;-48
2022/01/28 03:26:19;;;;;;;2.30;0.32;;;;;;;-3.37;100.00;102812.28;5049521;28;20025;-53
2022/01/28 03:28:44;;;;;;;0.75;0.40;;;;;;;-3.46;100.00;102808.19;5050957;28;20037;-50
2022/01/28 03:31:10;;;;;;;5.07;1.27;;;;;;;-3.48;100.00;102799.63;5047771;28;20474;-52
2022/01/28 03:33:36;;;;;;;2.55;0.30;;;;;;;-3.50;100.00;102796.22;5023878;28;20035;-48
2022/01/28 03:36:04;;;;;;;1.05;0.45;;;;;;;-3.51;100.00;102800.56;5046729;28;20042;-51
2022/01/28 03:38:30;;;;;;;1.88;0.25;;;;;;;-3.52;100.00;102810.97;5048781;28;20068;-51
2022/01/28 03:40:56;;;;;;;0.28;0.10;;;;;;;-3.53;100.00;102810.13;5036993;28;20087;-49
2022/01/28 03:43:22;;;;;;;0.82;0.28;;;;;;;-3.53;100.00;102804.09;5060745;28;20432;-51
2022/01/28 03:45:48;;;;;;;3.20;0.73;;;;;;;-3.56;100.00;102805.03;5050105;28;20102;-49
2022/01/28 03:48:13;;;;;;;4.70;1.17;;;;;;;-3.52;100.00;102808.38;5044617;28;20037;-51
2022/01/28 03:50:39;;;;;;;1.67;0.32;;;;;;;-3.51;100.00;102807.50;5044849;28;20504;-52
2022/01/28 03:53:06;;;;;;;1.98;1.08;;;;;;;-3.55;100.00;102800.69;5043729;28;20067;-51
2022/01/28 03:55:32;;;;;;;0.50;0.20;;;;;;;-3.59;100.00;102812.88;5050229;28;20039;-49
2022/01/28 03:57:58;;;;;;;5.30;0.10;;;;;;;-3.57;100.00;102798.13;5043050;28;20030;-53
2022/01/28 04:00:26;;;;;;;3.00;0.70;;;;;;;-3.57;100.00;102798.13;5045990;28;20028;-53
2022/01/28 04:03:02;;;;;;;1.33;0.30;;;;;;;-3.58;100.00;102796.44;5050501;28;20034;-50
2022/01/28 04:11:26;;;;;;;0.73;0.30;;;;;;;-3.60;100.00;102785.25;5036280;28;20112;-50
2022/01/28 04:13:48;;;;;;;0.82;0.10;;;;;;;-3.63;100.00;102784.47;5029854;28;20048;-54
2022/01/28 04:18:42;;;;;;;2.60;0.90;;;;;;;-3.53;100.00;102779.00;5047231;28;20606;-53
2022/01/28 04:21:07;;;;;;;2.58;1.63;;;;;;;-3.51;100.00;102779.81;5049200;28;20033;-51
2022/01/28 04:23:32;;;;;;;0.25;0.22;;;;;;;-3.51;100.00;102782.41;5040730;28;20279;-53
2022/01/28 04:25:58;;;;;;;0.88;0.20;;;;;;;-3.51;100.00;102781.56;5049460;28;20025;-50
2022/01/28 04:28:23;;;;;;;3.22;0.45;;;;;;;-3.56;100.00;102781.69;5026163;28;20421;-53
2022/01/28 04:30:48;;;;;;;1.35;0.40;;;;;;;-3.62;100.00;102781.00;5060723;28;20029;-53
2022/01/28 04:33:14;;;;;;;1.55;0.30;;;;;;;-3.67;100.00;102777.66;5052537;28;20035;-54
2022/01/28 04:35:39;;;;;;;1.60;0.43;;;;;;;-3.67;100.00;102788.88;5042495;28;20029;-54
2022/01/28 04:40:35;;;;;;;0.90;0.35;;;;;;;-3.58;100.00;102793.84;5058008;28;21109;-56
2022/01/28 04:43:19;;;;;;;2.08;0.15;;;;;;;-3.61;100.00;102806.03;5040394;28;20033;-51
2022/01/28 04:48:29;;;;;;;4.60;0.50;;;;;;;-3.62;100.00;102799.97;5046915;28;20051;-52
2022/01/28 04:53:34;;;;;;;9.27;0.20;;;;;;;-3.64;100.00;102795.72;5049196;28;20037;-53
2022/01/28 05:11:37;;;;;;;3.90;0.32;;;;;;;-3.62;100.00;102806.91;5058670;28;20039;-50
2022/01/28 05:27:18;;;;;;;0.80;0.40;;;;;;;-3.58;100.00;102793.00;5047962;28;20455;-53
2022/01/28 05:29:44;;;;;;;1.17;0.47;;;;;;;-3.57;100.00;102792.09;5060251;28;20052;-56
2022/01/28 05:32:09;;;;;;;0.40;0.28;;;;;;;-3.58;100.00;102786.06;5063707;28;20476;-49
2022/01/28 05:34:35;;;;;;;0.63;0.30;;;;;;;-3.62;100.00;102783.56;5051468;28;20042;-51
2022/01/28 05:37:01;;;;;;;1.85;0.75;;;;;;;-3.64;100.00;102786.22;5049208;28;20039;-48
2022/01/28 05:39:26;;;;;;;1.75;0.22;;;;;;;-3.59;100.00;102793.88;5060774;28;20036;-54
2022/01/28 05:41:52;;;;;;;1.25;0.68;;;;;;;-3.58;100.00;102801.63;5061825;28;20067;-50
2022/01/28 05:44:18;;;;;;;1.20;1.08;;;;;;;-3.58;100.00;102795.59;5048957;28;20501;-49
2022/01/28 05:46:45;;;;;;;0.75;0.35;;;;;;;-3.58;100.00;102811.13;5042365;28;20033;-51
2022/01/28 05:49:10;;;;;;;2.50;0.30;;;;;;;-3.59;100.00;102814.59;5040317;28;20128;-50
2022/01/28 05:51:36;;;;;;;0.75;0.15;;;;;;;-3.63;100.00;102813.84;5040763;28;20091;-49
2022/01/28 05:54:01;;;;;;;0.90;0.47;;;;;;;-3.63;100.00;102815.59;5042575;28;20029;-50
2022/01/28 05:56:27;;;;;;;2.75;0.30;;;;;;;-3.66;100.00;102815.69;5043919;28;20382;-50
2022/01/28 05:58:54;;;;;;;0.55;0.43;;;;;;;-3.67;100.00;102816.56;5040145;28;20030;-50
2022/01/28 06:01:20;;;;;;;1.40;0.45;;;;;;;-3.69;100.00;102814.03;5040603;28;20128;-52
2022/01/28 06:03:47;;;;;;;1.02;0.30;;;;;;;-3.70;100.00;102816.66;5037588;28;20048;-50
2022/01/28 06:06:20;;;;;;;1.27;0.43;;;;;;;-3.68;100.00;102823.50;5038961;28;20033;-52
2022/01/28 06:08:50;;;;;;;1.80;0.35;;;;;;;-3.69;100.00;102818.34;5041636;28;20385;-50
2022/01/28 06:11:16;;;;;;;2.75;0.38;;;;;;;-3.67;100.00;102819.16;5038261;28;20377;-51
2022/01/28 06:13:42;;;;;;;3.72;0.40;;;;;;;-3.67;100.00;102820.00;5040483;28;20109;-49
2022/01/28 06:16:09;;;;;;;1.17;0.17;;;;;;;-3.65;100.00;102835.53;5040420;28;20104;-52
2022/01/28 06:18:36;;;;;;;3.25;0.30;;;;;;;-3.65;100.00;102836.38;5041969;28;20036;-52
2022/01/28 06:21:02;;;;;;;1.27;0.32;;;;;;;-3.65;100.00;102840.72;5032196;28;20046;-49
2022/01/28 06:23:27;;;;;;;2.15;0.50;;;;;;;-3.66;100.00;102841.63;5038381;28;20554;-54
2022/01/28 06:25:53;;;;;;;0.35;0.30;;;;;;;-3.68;100.00;102849.44;5048210;28;20045;-50
2022/01/28 06:28:18;;;;;;;0.52;0.35;;;;;;;-3.68;100.00;102854.63;5055648;28;20102;-50
2022/01/28 06:30:44;;;;;;;3.53;0.40;;;;;;;-3.64;100.00;102857.97;5062596;28;20408;-52
2022/01/28 06:33:13;;;;;;;2.92;0.45;;;;;;;-3.62;100.00;102863.97;5049706;28;20032;-50
2022/01/28 06:35:43;;;;;;;5.68;0.73;;;;;;;-3.56;100.00;102866.41;5054372;28;20090;-53
2022/01/28 06:38:09;;;;;;;0.40;0.40;;;;;;;-3.51;100.00;102859.38;5065165;28;20046;-52
2022/01/28 06:40:34;;;;;;;1.67;0.63;;;;;;;-3.48;100.00;102868.78;5061840;28;20036;-51
2022/01/28 06:43:00;;;;;;;1.35;0.20;;;;;;;-3.49;100.00;102865.34;5046170;28;20041;-49
2022/01/28 06:45:25;;;;;;;5.53;0.30;;;;;;;-3.49;100.00;102867.94;5041456;28;20478;-48
2022/01/28 06:47:51;;;;;;;2.53;0.43;;;;;;;-3.49;100.00;102860.16;5057955;28;20111;-52
2022/01/28 06:50:16;;;;;;;2.58;0.70;;;;;;;-3.50;100.00;102863.66;5061970;28;20115;-51
2022/01/28 06:52:42;;;;;;;2.45;1.20;;;;;;;-3.48;100.00;102859.28;5052099;28;20052;-51
2022/01/28 06:55:09;;;;;;;1.35;0.60;;;;;;;-3.49;100.00;102862.75;5051831;28;20072;-52
2022/01/28 06:57:35;;;;;;;4.68;1.17;;;;;;;-3.42;100.00;102853.06;5058108;28;20043;-53
2022/01/28 07:00:01;;;;;;;2.65;0.40;;;;;;;-3.34;100.00;102851.94;5062022;28;20463;-48
2022/01/28 07:02:26;;;;;;;0.75;0.70;;;;;;;-3.35;100.00;102850.25;5046558;28;20283;-52
2022/01/28 07:04:52;;;;;;;1.70;0.50;;;;;;;-3.34;100.00;102851.94;5050050;28;20033;-51
2022/01/28 07:07:17;;;;;;;4.30;0.77;;;;;;;-3.31;100.00;102857.03;5056463;28;20120;-49
2022/01/28 07:09:43;;;;;;;1.10;0.40;;;;;;;-3.35;100.00;102849.41;5061590;28;20488;-51
2022/01/28 07:12:09;;;;;;;3.60;0.43;;;;;;;-3.35;100.00;102845.06;5045582;28;20168;-49
2022/01/28 07:14:34;;;;;;;2.75;0.77;;;;;;;-3.29;100.00;102846.63;5039731;28;20078;-51
2022/01/28 07:16:59;;;;;;;4.57;1.67;;;;;;;-3.23;100.00;102859.41;5051553;28;20048;-50
2022/01/28 07:19:25;;;;;;;2.45;0.85;;;;;;;-3.20;100.00;102868.88;5061764;28;20473;-55
2022/01/28 07:21:53;;;;;;;4.22;0.50;;;;;;;-3.16;100.00;102873.09;5042239;28;20862;-52
2022/01/28 07:24:19;;;;;;;1.23;0.57;;;;;;;-3.22;100.00;102871.53;5043735;28;20052;-49
2022/01/28 07:26:44;;;;;;;0.80;0.45;;;;;;;-3.23;100.00;102889.72;5046878;28;20462;-50
2022/01/28 07:29:11;;;;;;;0.70;0.30;;;;;;;-3.23;100.00;102889.72;5039083;28;20044;-51
2022/01/28 07:31:38;;;;;;;0.65;0.50;;;;;;;-3.11;100.00;102873.81;5045478;28;20026;-52
2022/01/28 07:34:04;;;;;;;3.72;1.17;;;;;;;-3.10;100.00;102870.31;5030922;28;20084;-53
2022/01/28 07:36:29;;;;;;;1.02;0.60;;;;;;;-3.11;100.00;102884.19;5041216;28;20045;-51
2022/01/28 07:38:54;;;;;;;5.97;1.35;;;;;;;-3.08;100.00;102877.16;5043103;28;20045;-48
2022/01/28 07:41:21;;;;;;;1.90;0.45;;;;;;;-3.10;100.00;102873.78;5043281;28;20436;-50
2022/01/28 07:43:48;;;;;;;2.85;0.65;;;;;;;-3.09;100.00;102872.88;5041066;28;20482;-54
2022/01/28 07:46:14;;;;;;;3.95;1.00;;;;;;;-3.08;100.00;102871.13;5043620;28;20068;-52
2022/01/28 07:48:39;;;;;;;1.95;0.85;;;;;;;-3.02;100.00;102870.09;5038731;28;20036;-52
2022/01/28 07:51:05;;;;;;;0.93;0.30;;;;;;;-3.01;100.00;102877.84;5041142;28;20472;-50
2022/01/28 07:53:30;;;;;;;3.63;1.52;;;;;;;-3.02;100.00;102890.84;5044396;28;20122;-50
2022/01/28 07:55:56;;;;;;;3.25;0.50;;;;;;;-3.02;100.00;102893.44;5037657;28;20028;-51
2022/01/28 07:58:22;;;;;;;1.25;0.77;;;;;;;-3.03;100.00;102902.13;5042642;28;20040;-52
2022/01/28 08:00:47;;;;;;;0.77;0.40;;;;;;;-3.04;100.00;102884.88;5047786;28;20029;-50
2022/01/28 08:03:13;;;;;;;1.48;0.45;;;;;;;-3.03;100.00;102877.03;5047132;28;20456;-52
2022/01/28 08:05:38;;;;;;;2.80;0.75;;;;;;;-3.02;100.00;102872.69;5035888;28;20041;-48
2022/01/28 08:08:05;;;;;;;1.85;0.98;;;;;;;-2.94;100.00;102881.97;5046002;28;20542;-53
2022/01/28 08:10:32;;;;;;;2.40;0.95;;;;;;;-2.85;100.00;102878.22;5045572;28;20041;-50
2022/01/28 08:13:00;;;;;;;1.67;1.08;;;;;;;-2.80;100.00;102884.16;5043635;28;20171;-55
2022/01/28 08:15:26;;;;;;;3.60;1.17;;;;;;;-2.78;100.00;102891.91;5038391;28;20102;-50
2022/01/28 08:17:52;;;;;;;2.20;0.88;;;;;;;-2.78;100.00;102894.50;5046003;28;20025;-50
2022/01/28 08:20:17;;;;;;;1.58;1.48;;;;;;;-2.80;100.00;102876.34;5046318;28;20449;-53
2022/01/28 08:22:48;;;;;;;3.75;0.70;;;;;;;-2.78;100.00;102878.91;5054932;28;20060;-48
2022/01/28 08:25:15;;;;;;;0.50;0.40;;;;;;;-2.77;100.00;102870.22;5053374;28;20028;-49
2022/01/28 08:27:45;;;;;;;1.63;1.27;;;;;;;-2.74;100.00;102867.53;5051010;28;20029;-51
2022/01/28 08:30:11;;;;;;;1.48;0.85;;;;;;;-2.67;100.00;102872.47;5037162;28;20032;-51
2022/01/28 08:32:38;;;;;;;6.28;0.77;;;;;;;-2.61;100.00;102888.78;5039463;28;20577;-48
2022/01/28 08:35:04;;;;;;;0.80;0.30;;;;;;;-2.59;100.00;102898.22;5043925;28;20032;-48
2022/01/28 08:37:29;;;;;;;1.13;0.45;;;;;;;-2.53;100.00;102897.19;5044304;28;20029;-49
2022/01/28 08:39:54;;;;;;;2.30;1.13;;;;;;;-2.51;100.00;102898.84;5040591;28;20516;-49
2022/01/28 08:42:20;;;;;;;1.90;0.30;;;;;;;-2.48;100.00;102888.38;5040624;28;20029;-50
2022/01/28 08:44:45;;;;;;;6.07;0.65;;;;;;;-2.42;100.00;102901.16;5045010;28;20052;-53
2022/01/28 08:47:10;;;;;;;1.88;1.08;;;;;;;-2.30;100.00;102891.28;5042560;28;20079;-52
2022/01/28 08:49:36;;;;;;;6.80;1.13;;;;;;;-2.24;100.00;102891.94;5040917;28;20355;-50
2022/01/28 08:52:03;;;;;;;2.17;0.65;;;;;;;-2.22;100.00;102887.56;5032803;28;20029;-51
2022/01/28 08:54:28;;;;;;;1.92;0.77;;;;;;;-2.23;100.00;102882.38;5034829;28;20072;-54
2022/01/28 08:56:53;;;;;;;1.75;1.17;;;;;;;-2.22;100.00;102891.88;5040672;28;20196;-52
2022/01/28 08:59:19;;;;;;;0.80;0.70;;;;;;;-2.20;100.00;102890.06;5032506;28;20791;-47
2022/01/28 09:01:44;;;;;;;1.00;0.65;;;;;;;-2.15;100.00;102888.19;5028341;28;20086;-50
2022/01/28 09:04:09;;;;;;;5.70;0.63;;;;;;;-2.11;100.00;102889.78;5046866;28;20572;-49
2022/01/28 09:06:35;;;;;;;2.28;1.42;;;;;;;-2.04;100.00;102899.09;5043917;28;20482;-50
2022/01/28 09:09:01;;;;;;;3.30;1.00;;;;;;;-1.95;100.00;102913.53;5037750;28;20043;-50
2022/01/28 09:13:52;;;;;;;3.15;1.00;;;;;;;-1.75;100.00;102902.47;5051563;28;20045;-48
2022/01/28 09:16:18;;;;;;;3.40;0.82;;;;;;;-1.56;100.00;102906.13;5045393;28;20040;-51
2022/01/28 09:18:45;;;;;;;5.75;0.60;;;;;;;-1.38;100.00;102914.22;5032435;28;20496;-52
2022/01/28 09:21:11;;;;;;;1.75;0.95;;;;;;;-1.33;100.00;102920.09;5047297;28;20032;-53
2022/01/28 09:23:36;;;;;;;6.45;1.48;;;;;;;-1.27;100.00;102919.03;5048951;28;20090;-50
2022/01/28 09:26:02;;;;;;;3.85;1.58;;;;;;;-1.21;100.00;102914.47;5036833;28;20033;-49
2022/01/28 09:28:27;;;;;;;4.82;2.38;;;;;;;-1.15;100.00;102914.25;5041941;28;20558;-50
2022/01/28 09:30:53;;;;;;;3.30;1.80;;;;;;;-1.04;100.00;102923.41;5041951;28;20047;-53
2022/01/28 09:33:18;;;;;;;5.10;2.20;;;;;;;-0.96;100.00;102917.00;5037643;28;20037;-50
2022/01/28 09:35:44;;;;;;;4.00;2.63;;;;;;;-0.84;100.00;102910.50;5036511;28;20029;-52
2022/01/28 09:38:10;;;;;;;6.95;2.53;;;;;;;-0.75;100.00;102902.38;5044825;28;20044;-50
2022/01/28 09:40:36;;;;;;;12.80;2.13;;;;;;;-0.68;100.00;102893.38;5035440;28;20124;-52
2022/01/28 09:43:04;;;;;;;10.77;4.00;;;;;;;-0.59;100.00;102896.56;5047769;28;20085;-54
2022/01/28 09:45:30;;;;;;;4.45;2.83;;;;;;;-0.49;100.00;102900.47;5043235;28;20024;-52
2022/01/28 09:47:57;;;;;;;5.55;2.50;;;;;;;-0.38;100.00;102903.53;5038259;28;20056;-52
2022/01/28 09:50:27;;;;;;;4.30;2.33;;;;;;;-0.30;100.00;102905.84;5046106;28;20032;-53
2022/01/28 09:52:54;;;;;;;2.67;2.42;;;;;;;-0.25;100.00;102901.28;5040619;28;20041;-54
2022/01/28 09:55:21;;;;;;;4.68;2.03;;;;;;;-0.17;100.00;102900.97;5030527;28;20064;-53
2022/01/28 09:57:51;;;;;;;2.70;1.90;;;;;;;-0.10;100.00;102895.47;5047886;28;20065;-52
2022/01/28 10:00:17;;;;;;;2.80;1.88;;;;;;;-0.02;100.00;102893.38;5050073;28;20137;-51
2022/01/28 10:03:05;;;;;;;4.70;2.42;;;;;;;0.02;100.00;102890.63;5028412;28;20033;-55
2022/01/28 10:05:34;;;;;;;7.07;3.38;;;;;;;0.04;100.00;102888.81;5043006;28;20037;-51
2022/01/28 10:08:02;;;;;;;5.70;2.00;;;;;;;0.07;100.00;102893.91;5055125;28;20032;-53
2022/01/28 10:10:41;;;;;;;3.00;2.15;;;;;;;0.10;100.00;102883.34;5039050;28;20504;-53
2022/01/28 10:13:22;;;;;;;6.70;2.65;;;;;;;0.15;100.00;102882.22;5040458;28;20036;-52
2022/01/28 10:15:56;;;;;;;3.40;2.28;;;;;;;0.20;100.00;102893.31;5041740;28;20044;-55
2022/01/28 10:18:35;;;;;;;5.47;2.38;;;;;;;0.30;100.00;102885.09;5051845;28;20045;-56
2022/01/28 10:21:00;;;;;;;3.42;1.80;;;;;;;0.33;100.00;102891.03;5036066;28;20029;-49
2022/01/28 10:23:25;;;;;;;4.43;2.58;;;;;;;0.38;100.00;102878.63;5047711;28;20028;-50
2022/01/28 10:25:56;;;;;;;3.50;1.95;;;;;;;0.43;100.00;102868.00;5038574;28;20501;-49
2022/01/28 10:28:22;;;;;;;5.90;2.25;;;;;;;0.47;100.00;102863.53;5035383;28;20051;-54
2022/01/28 10:30:47;;;;;;;5.68;2.53;;;;;;;0.60;100.00;102862.06;5041417;28;20032;-53
2022/01/28 10:33:23;;;;;;;3.17;2.22;;;;;;;0.77;100.00;102861.28;5039461;28;20486;-52
2022/01/28 10:35:59;;;;;;;7.40;1.98;;;;;;;0.97;100.00;102855.16;5032928;28;20029;-55
2022/01/28 10:38:31;;;;;;;6.15;1.98;;;;;;;1.18;100.00;102864.63;5043605;28;20086;-50
2022/01/28 10:41:18;;;;;;;4.05;2.00;;;;;;;1.44;100.00;102862.53;5023477;28;20127;-52
2022/01/28 10:43:49;;;;;;;5.97;3.38;;;;;;;1.74;100.00;102865.44;5034146;28;20036;-52
2022/01/28 10:46:34;;;;;;;7.13;3.30;;;;;;;2.04;100.00;102870.06;5042279;28;20037;-53
2022/01/28 10:49:03;;;;;;;8.43;4.15;;;;;;;2.34;100.00;102871.13;5041120;28;20074;-53
2022/01/28 10:51:43;;;;;;;7.22;3.45;;;;;;;2.65;100.00;102869.53;5041498;28;20115;-50
2022/01/28 10:54:11;;;;;;;14.20;3.60;;;;;;;2.86;100.00;102857.06;5037132;28;20509;-55
2022/01/28 10:56:50;;;;;;;6.35;2.97;;;;;;;3.04;100.00;102858.69;5047734;28;20032;-52
2022/01/28 10:59:18;;;;;;;5.60;3.30;;;;;;;3.20;100.00;102844.75;5040871;28;20025;-49
2022/01/28 11:01:45;;;;;;;9.32;5.18;;;;;;;3.40;100.00;102841.00;5036249;28;20268;-51
2022/01/28 11:04:12;;;;;;;9.27;2.90;;;;;;;3.56;100.00;102835.75;5048168;28;20040;-50
2022/01/28 11:06:39;;;;;;;6.43;2.72;;;;;;;3.72;100.00;102831.31;5041224;28;20116;-51
2022/01/28 11:09:05;;;;;;;3.50;2.60;;;;;;;3.89;100.00;102832.94;5036475;28;20052;-53
2022/01/28 11:11:31;;;;;;;8.43;3.30;;;;;;;4.09;100.00;102824.75;5040041;28;20482;-51
2022/01/28 11:13:57;;;;;;;10.77;3.22;;;;;;;4.33;100.00;102817.16;5039777;28;20136;-53
2022/01/28 11:16:22;;;;;;;3.88;1.77;;;;;;;4.52;100.00;102802.94;5043876;28;20041;-54
2022/01/28 11:18:48;;;;;;;3.85;1.92;;;;;;;4.71;100.00;102802.63;5054066;28;20509;-52
2022/01/28 11:21:17;;;;;;;2.30;1.88;;;;;;;4.88;100.00;102794.53;5039049;28;20173;-49
2022/01/28 11:24:01;;;;;;;3.42;1.48;;;;;;;4.98;100.00;102781.63;5038227;28;20052;-51
2022/01/28 11:26:49;;;;;;;3.38;1.52;;;;;;;5.19;100.00;102785.50;5036227;28;20029;-51
2022/01/28 11:29:19;;;;;;;1.67;0.63;;;;;;;5.44;100.00;102771.56;5041697;28;20036;-51
2022/01/28 11:31:55;;;;;;;4.70;1.77;;;;;;;5.66;100.00;102773.63;5040970;28;20460;-53
2022/01/28 11:34:26;;;;;;;2.67;1.45;;;;;;;5.87;100.00;102768.72;5045710;28;20271;-52
2022/01/28 11:36:56;;;;;;;5.10;1.70;;;;;;;6.00;100.00;102762.66;5049433;28;20029;-53
2022/01/28 11:39:38;;;;;;;3.65;0.88;;;;;;;6.07;100.00;102758.66;5040513;28;20528;-50
2022/01/28 11:42:07;;;;;;;2.03;1.00;;;;;;;6.15;100.00;102753.69;5050395;28;20466;-49
2022/01/28 11:44:38;;;;;;;7.47;2.08;;;;;;;6.25;100.00;102757.38;5030680;28;20064;-52
2022/01/28 11:47:04;;;;;;;2.60;1.17;;;;;;;6.33;100.00;102741.84;5038104;28;20043;-52
2022/01/28 11:49:29;;;;;;;4.25;2.17;;;;;;;6.45;100.00;102736.66;5049984;28;20040;-53
2022/01/28 11:51:55;;;;;;;4.25;1.45;;;;;;;6.45;100.00;102747.19;5055173;28;20037;-55
2022/01/28 11:54:23;;;;;;;8.00;1.17;;;;;;;6.44;100.00;102740.25;5025406;28;20029;-50
2022/01/28 11:57:15;;;;;;;2.95;2.00;;;;;;;6.50;100.00;102731.91;5045090;28;20470;-51
2022/01/28 11:59:41;;;;;;;2.88;1.00;;;;;;;6.48;100.00;102724.13;5024688;28;20486;-50
2022/01/28 12:02:09;;;;;;;4.03;0.77;;;;;;;6.47;100.00;102730.34;5033617;28;20103;-52
2022/01/28 12:04:42;;;;;;;2.38;0.82;;;;;;;6.49;100.00;102732.88;5041838;28;20485;-50
2022/01/28 12:07:21;;;;;;;2.55;1.33;;;;;;;6.45;100.00;102732.22;5055865;28;20506;-52
2022/01/28 12:09:51;;;;;;;4.75;0.60;;;;;;;6.45;100.00;102726.97;5045998;28;20108;-54
2022/01/28 12:12:25;;;;;;;3.65;0.85;;;;;;;6.44;100.00;102725.28;5046692;28;20061;-52
2022/01/28 12:14:56;;;;;;;4.50;2.05;;;;;;;6.46;100.00;102714.66;5038777;28;20486;-51
2022/01/28 12:17:31;;;;;;;;;;;;;;;6.54;100.00;102712.31;5036180;28;20032;-55
2022/01/28 12:20:15;;;;;;;4.20;1.80;;;;;;;6.63;100.00;102711.63;5037374;28;19920;-53
2022/01/28 12:22:59;;;;;;;12.88;5.93;;;;;;;6.65;100.00;102717.63;5044790;28;20032;-51
2022/01/28 12:25:36;;;;;;;24.33;10.30;;;;;;;6.64;100.00;102707.22;5039149;28;20029;-54
2022/01/28 12:28:31;;;;;;;32.35;14.65;;;;;;;6.65;100.00;102712.34;5033882;28;20029;-52
2022/01/28 12:30:58;;;;;;;19.42;6.85;;;;;;;6.66;100.00;102706.16;5048379;28;20045;-49
2022/01/28 12:33:26;;;;;;;29.40;12.07;;;;;;;6.68;100.00;102704.22;5037545;28;20028;-51
2022/01/28 12:35:55;;;;;;;18.13;7.65;;;;;;;6.73;100.00;102703.91;5052466;28;20032;-53
2022/01/28 12:38:24;;;;;;;19.90;7.88;;;;;;;6.72;100.00;102702.22;5050775;28;20090;-54
2022/01/28 12:40:52;;;;;;;15.05;7.35;;;;;;;6.68;100.00;102687.56;5041809;28;20029;-54
2022/01/28 12:43:20;;;;;;;31.15;12.27;;;;;;;6.70;100.00;102677.75;5042664;28;20033;-51
2022/01/28 12:46:02;;;;;;;21.00;9.57;;;;;;;6.67;100.00;102673.56;5035148;28;20139;-54
2022/01/28 12:48:28;;;;;;;26.63;10.40;;;;;;;6.74;100.00;102653.69;5039061;28;20028;-52
2022/01/28 12:50:55;;;;;;;17.88;6.35;;;;;;;6.88;100.00;102647.41;5029612;28;20072;-54